Time;durP1;ratioP1;P1;durP2;ratioP2;P2;SDS_P1;SDS_P2;PMS_P1;PMS_P2;Temp;Humidity;BMP_temperature;BMP_pressure;BME280_temperature;BME280_humidity;BME280_pressure;Samples;Min_cycle;Max_cycle;Signal;HPM_P1;HPM_P2
2021/05/11 00:01:29;;;;;;;8.35;2.28;;;;;;;;;;6845759;28;20062;-87
2021/05/11 00:04:50;;;;;;;5.60;2.00;;;;;;;;;;6861985;28;20099;-86
2021/05/11 00:08:10;;;;;;;13.25;2.53;;;;;;;;;;6853060;28;20034;-86
2021/05/11 00:11:31;;;;;;;5.43;2.17;;;;;;;;;;6851230;28;20481;-86
2021/05/11 00:14:51;;;;;;;11.63;2.40;;;;;;;;;;6863530;28;20093;-86
2021/05/11 00:18:13;;;;;;;5.88;2.13;;;;;;;;;;6863844;28;20114;-87
2021/05/11 00:21:34;;;;;;;5.18;2.47;;;;;;;;;;6864188;28;20026;-86
2021/05/11 00:24:54;;;;;;;5.13;1.75;;;;;;;;;;6859101;28;20051;-86
2021/05/11 00:28:14;;;;;;;6.60;2.70;;;;;;;;;;6864692;28;20044;-86
2021/05/11 00:31:35;;;;;;;4.40;1.90;;;;;;;;;;7019377;23;20150;-86
2021/05/11 00:34:55;;;;;;;5.60;1.90;;;;;;;;;;6864287;28;20449;-86
2021/05/11 00:38:16;;;;;;;4.88;1.95;;;;;;;;;;6863486;28;20464;-86
2021/05/11 00:41:36;;;;;;;4.03;1.80;;;;;;;;;;6873367;28;20034;-86
2021/05/11 00:44:57;;;;;;;6.07;2.15;;;;;;;;;;6863362;28;20027;-86
2021/05/11 00:48:17;;;;;;;7.30;2.05;;;;;;;;;;6863319;28;20031;-86
2021/05/11 00:51:37;;;;;;;3.88;2.15;;;;;;;;;;6863402;28;20114;-86
2021/05/11 00:54:58;;;;;;;5.57;2.00;;;;;;;;;;6863147;28;20031;-86
2021/05/11 00:58:19;;;;;;;8.40;1.98;;;;;;;;;;6863262;28;20101;-87
2021/05/11 01:01:39;;;;;;;5.07;1.88;;;;;;;;;;6872237;28;20491;-86
2021/05/11 01:05:00;;;;;;;4.68;1.90;;;;;;;;;;6863223;28;20134;-86
2021/05/11 01:08:20;;;;;;;4.60;1.70;;;;;;;;;;6871387;28;20342;-85
2021/05/11 01:11:42;;;;;;;2.70;1.52;;;;;;;;;;6843089;28;20074;-86
2021/05/11 01:15:03;;;;;;;6.50;2.10;;;;;;;;;;6869673;28;20129;-86
2021/05/11 01:18:31;;;;;;;6.47;2.28;;;;;;;;;;6857560;28;20082;-85
2021/05/11 01:22:25;;;;;;;12.38;1.70;;;;;;;;;;6863491;28;20026;-86
2021/05/11 01:25:49;;;;;;;13.07;2.15;;;;;;;;;;6863017;28;20035;-86
2021/05/11 02:22:48;;;;;;;6.60;1.73;;;;;;;;;;6867482;28;20035;-85
2021/05/11 02:26:09;;;;;;;4.88;1.50;;;;;;;;;;6871168;28;20455;-88
2021/05/11 02:29:29;;;;;;;4.95;1.48;;;;;;;;;;6872391;28;20448;-85
2021/05/11 02:32:50;;;;;;;6.63;2.65;;;;;;;;;;6872514;28;20068;-87
2021/05/11 02:36:11;;;;;;;3.45;1.77;;;;;;;;;;6867954;28;20050;-86
2021/05/11 02:39:31;;;;;;;4.13;2.08;;;;;;;;;;6867992;28;20054;-86
2021/05/11 02:42:57;;;;;;;2.72;2.17;;;;;;;;;;6858615;28;20350;-86
2021/05/11 02:46:18;;;;;;;8.10;1.77;;;;;;;;;;6880517;28;20054;-86
2021/05/11 02:49:49;;;;;;;4.35;1.65;;;;;;;;;;6869006;28;20059;-86
2021/05/11 02:53:10;;;;;;;2.58;1.60;;;;;;;;;;6871294;28;20031;-87
2021/05/11 02:56:30;;;;;;;6.50;2.05;;;;;;;;;;6866891;28;20101;-87
2021/05/11 02:59:51;;;;;;;3.88;1.73;;;;;;;;;;6869736;28;20109;-87
2021/05/11 03:03:11;;;;;;;2.90;1.30;;;;;;;;;;6865924;28;20384;-87
2021/05/11 03:06:31;;;;;;;5.82;1.60;;;;;;;;;;6865639;28;20106;-87
2021/05/11 03:09:52;;;;;;;5.55;1.80;;;;;;;;;;6865920;28;20045;-87
2021/05/11 03:13:13;;;;;;;2.90;1.67;;;;;;;;;;6865568;28;20357;-87
2021/05/11 03:16:35;;;;;;;2.20;1.40;;;;;;;;;;6866497;28;20097;-87
2021/05/11 03:19:56;;;;;;;2.10;1.42;;;;;;;;;;6872964;28;20035;-87
2021/05/11 03:23:16;;;;;;;3.17;1.30;;;;;;;;;;6851649;28;20085;-88
2021/05/11 03:26:36;;;;;;;2.97;1.48;;;;;;;;;;6862062;28;20039;-87
2021/05/11 03:29:57;;;;;;;2.45;1.58;;;;;;;;;;6870462;28;20043;-87
2021/05/11 03:33:17;;;;;;;3.17;1.52;;;;;;;;;;6865042;28;20031;-87
2021/05/11 03:36:38;;;;;;;2.88;1.30;;;;;;;;;;6852631;28;20030;-88
2021/05/11 03:39:58;;;;;;;3.22;1.30;;;;;;;;;;6869669;28;20538;-87
2021/05/11 03:43:24;;;;;;;2.90;1.67;;;;;;;;;;6864931;28;20037;-87
2021/05/11 03:46:45;;;;;;;2.08;1.30;;;;;;;;;;6865810;28;20109;-88
2021/05/11 03:50:06;;;;;;;2.78;1.42;;;;;;;;;;6862977;28;20038;-85
2021/05/11 03:53:26;;;;;;;3.88;1.60;;;;;;;;;;6865047;28;20035;-85
2021/05/11 03:56:46;;;;;;;2.03;1.40;;;;;;;;;;6879913;28;20031;-86
2021/05/11 04:00:07;;;;;;;4.20;1.75;;;;;;;;;;6856386;28;20069;-87
2021/05/11 04:03:28;;;;;;;3.42;1.55;;;;;;;;;;6864645;28;20377;-87
2021/05/11 04:06:48;;;;;;;2.60;1.38;;;;;;;;;;6866298;28;20460;-86
2021/05/11 04:10:52;;;;;;;2.55;1.42;;;;;;;;;;6866075;28;20093;-88
2021/05/11 04:14:12;;;;;;;7.22;1.73;;;;;;;;;;6858893;28;20461;-86
2021/05/11 04:17:33;;;;;;;1.67;1.38;;;;;;;;;;6864913;28;20056;-85
2021/05/11 04:20:53;;;;;;;2.15;1.30;;;;;;;;;;6863659;28;20376;-85
2021/05/11 04:24:14;;;;;;;3.60;1.55;;;;;;;;;;6870313;28;20030;-86
2021/05/11 04:27:34;;;;;;;5.25;1.98;;;;;;;;;;6885006;28;20169;-86
2021/05/11 04:30:54;;;;;;;1.35;1.20;;;;;;;;;;6863879;28;20051;-86
2021/05/11 04:34:15;;;;;;;2.03;1.63;;;;;;;;;;6847307;28;20038;-87
2021/05/11 04:37:35;;;;;;;3.30;1.35;;;;;;;;;;6868070;28;20057;-87
2021/05/11 04:40:56;;;;;;;2.35;1.38;;;;;;;;;;6873083;28;20051;-87
2021/05/11 04:44:19;;;;;;;2.88;1.38;;;;;;;;;;6864363;28;20368;-87
2021/05/11 04:47:46;;;;;;;1.83;1.20;;;;;;;;;;6870567;28;20033;-87
2021/05/11 04:51:07;;;;;;;2.88;1.55;;;;;;;;;;6863928;28;20376;-89
2021/05/11 04:54:27;;;;;;;1.48;1.38;;;;;;;;;;6869408;28;20468;-87
2021/05/11 04:57:47;;;;;;;3.83;1.30;;;;;;;;;;6863797;28;20038;-88
2021/05/11 05:01:08;;;;;;;2.10;1.48;;;;;;;;;;6872648;28;20034;-91
2021/05/11 05:04:32;;;;;;;2.85;1.50;;;;;;;;;;6870211;28;20034;-91
2021/05/11 05:07:53;;;;;;;2.83;1.30;;;;;;;;;;6876804;28;20038;-87
2021/05/11 05:11:14;;;;;;;2.90;1.70;;;;;;;;;;6845703;28;20070;-87
2021/05/11 05:14:35;;;;;;;2.72;1.40;;;;;;;;;;6863895;28;20078;-90
2021/05/11 05:17:55;;;;;;;1.88;1.55;;;;;;;;;;6862243;28;20042;-89
2021/05/11 05:21:16;;;;;;;2.50;1.30;;;;;;;;;;6870344;28;20045;-91
2021/05/11 05:24:44;;;;;;;2.20;1.30;;;;;;;;;;6865370;28;20117;-91
2021/05/11 05:28:08;;;;;;;1.35;1.25;;;;;;;;;;6852685;28;20365;-89
2021/05/11 05:31:29;;;;;;;2.53;1.25;;;;;;;;;;6859995;28;20070;-94
2021/05/11 05:34:50;;;;;;;2.92;1.30;;;;;;;;;;6852164;28;20030;-91
2021/05/11 05:38:10;;;;;;;2.95;2.72;;;;;;;;;;6863505;28;20117;-91
2021/05/11 05:41:33;;;;;;;3.10;2.67;;;;;;;;;;6872737;28;20026;-91
2021/05/11 05:44:53;;;;;;;5.53;2.70;;;;;;;;;;6884411;28;20039;-91
2021/05/11 05:48:14;;;;;;;8.40;7.55;;;;;;;;;;6862274;28;20062;-91
2021/05/11 05:51:35;;;;;;;8.20;6.60;;;;;;;;;;6862894;28;20046;-91
2021/05/11 05:54:55;;;;;;;7.30;6.60;;;;;;;;;;6868816;28;20030;-90
2021/05/11 05:58:16;;;;;;;2.60;1.63;;;;;;;;;;6868082;28;20409;-90
2021/05/11 06:01:36;;;;;;;1.85;1.40;;;;;;;;;;6867082;28;20054;-87
2021/05/11 06:04:57;;;;;;;1.60;1.50;;;;;;;;;;6863169;28;20046;-87
2021/05/11 06:08:17;;;;;;;1.92;1.50;;;;;;;;;;6866708;28;20423;-86
2021/05/11 06:11:49;;;;;;;1.85;1.55;;;;;;;;;;6868885;28;20066;-86
2021/05/11 06:17:13;;;;;;;1.55;1.45;;;;;;;;;;6842436;28;20031;-88
2021/05/11 06:18:50;;;;;;;2.25;1.65;;;;;;;;;;6858361;28;20097;-88
2021/05/11 06:22:11;;;;;;;3.67;1.80;;;;;;;;;;6852317;28;20026;-88
2021/05/11 06:25:31;;;;;;;1.70;1.60;;;;;;;;;;6860035;28;20361;-88
2021/05/11 06:28:54;;;;;;;2.65;1.67;;;;;;;;;;6853290;28;20110;-89
2021/05/11 06:32:14;;;;;;;5.18;1.80;;;;;;;;;;6853965;28;20114;-89
2021/05/11 06:35:36;;;;;;;5.13;1.63;;;;;;;;;;6865144;28;20034;-90
2021/05/11 06:38:57;;;;;;;2.60;1.33;;;;;;;;;;6863104;28;20460;-90
2021/05/11 06:42:20;;;;;;;2.78;1.90;;;;;;;;;;6844117;28;20084;-91
2021/05/11 06:52:50;;;;;;;1.63;1.52;;;;;;;;;;6867042;28;20527;-90
2021/05/11 06:56:13;;;;;;;1.67;1.50;;;;;;;;;;6851643;28;20049;-92
2021/05/11 06:59:34;;;;;;;11.20;1.90;;;;;;;;;;6866520;28;20038;-89
2021/05/11 07:02:55;;;;;;;8.25;1.70;;;;;;;;;;6848712;28;20033;-89
2021/05/11 07:06:17;;;;;;;3.90;2.03;;;;;;;;;;6852452;28;20074;-88
2021/05/11 07:10:06;;;;;;;10.10;2.83;;;;;;;;;;6857819;28;20400;-88
2021/05/11 07:13:21;;;;;;;24.50;4.35;;;;;;;;;;6863851;28;20096;-89
2021/05/11 07:16:41;;;;;;;21.90;3.70;;;;;;;;;;6865116;28;20468;-88
2021/05/11 07:20:02;;;;;;;11.98;4.05;;;;;;;;;;6865093;28;20094;-84
2021/05/11 07:23:23;;;;;;;11.18;3.28;;;;;;;;;;6865055;28;20034;-86
2021/05/11 07:27:10;;;;;;;20.70;2.70;;;;;;;;;;6869308;28;20038;-86
2021/05/11 07:30:29;;;;;;;13.43;2.55;;;;;;;;;;6866852;28;20057;-85
2021/05/11 07:33:50;;;;;;;6.20;2.30;;;;;;;;;;6884194;28;20464;-86
2021/05/11 07:37:11;;;;;;;3.78;2.15;;;;;;;;;;6872429;28;20037;-86
2021/05/11 07:40:32;;;;;;;7.10;1.98;;;;;;;;;;6865129;28;20034;-86
2021/05/11 07:43:56;;;;;;;3.97;2.10;;;;;;;;;;6866471;28;20031;-85
2021/05/11 07:47:22;;;;;;;6.57;2.25;;;;;;;;;;6861907;28;20042;-84
2021/05/11 07:51:12;;;;;;;15.55;2.50;;;;;;;;;;6873837;28;20031;-84
2021/05/11 08:02:04;;;;;;;15.82;5.13;;;;;;;;;;6865584;28;20039;-83
2021/05/11 08:16:09;;;;;;;11.80;3.83;;;;;;;;;;6870505;28;20050;-84
2021/05/11 08:19:48;;;;;;;8.55;3.38;;;;;;;;;;6876955;28;20038;-85
2021/05/11 08:30:18;;;;;;;10.55;3.00;;;;;;;;;;6867015;28;20055;-82
2021/05/11 08:33:38;;;;;;;8.55;2.47;;;;;;;;;;6878899;28;20385;-83
2021/05/11 08:36:58;;;;;;;6.85;2.22;;;;;;;;;;6883244;28;20141;-84
2021/05/11 08:40:19;;;;;;;8.00;2.78;;;;;;;;;;6866410;28;20444;-82
2021/05/11 08:43:44;;;;;;;11.10;2.70;;;;;;;;;;6870593;28;20061;-83
2021/05/11 08:47:05;;;;;;;3.90;2.25;;;;;;;;;;6862563;28;20057;-83
2021/05/11 08:50:35;;;;;;;4.47;2.65;;;;;;;;;;6882292;28;20034;-82
2021/05/11 09:05:50;;;;;;;9.43;2.70;;;;;;;;;;6866647;28;20054;-87
2021/05/11 09:09:22;;;;;;;;;;;;;;;;;;6869118;28;20093;-83
2021/05/11 09:23:52;;;;;;;18.08;2.53;;;;;;;;;;6870428;28;19918;-87
2021/05/11 09:34:35;;;;;;;9.45;2.28;;;;;;;;;;6869751;28;20479;-86
2021/05/11 09:50:57;;;;;;;4.75;2.22;;;;;;;;;;6867818;28;20034;-87
2021/05/11 10:01:01;;;;;;;6.07;2.28;;;;;;;;;;6861868;28;20134;-86
2021/05/11 10:31:22;;;;;;;7.72;2.40;;;;;;;;;;6878591;28;20019;-81
2021/05/11 10:43:42;;;;;;;4.18;2.67;;;;;;;;;;6876657;28;20046;-82
2021/05/11 10:47:13;;;;;;;3.22;2.25;;;;;;;;;;6866733;28;20443;-83
2021/05/11 10:50:03;;;;;;;12.40;2.60;;;;;;;;;;6849587;28;20053;-84
2021/05/11 10:53:54;;;;;;;6.35;1.90;;;;;;;;;;6848785;28;20118;-83
2021/05/11 10:57:33;;;;;;;2.80;1.92;;;;;;;;;;6862966;28;20039;-83
2021/05/11 11:00:59;;;;;;;4.70;2.10;;;;;;;;;;6866846;28;20031;-83
2021/05/11 11:04:22;;;;;;;4.00;2.05;;;;;;;;;;6865399;28;20074;-83
2021/05/11 11:07:42;;;;;;;3.75;2.08;;;;;;;;;;6870916;28;20035;-83
2021/05/11 11:11:11;;;;;;;5.10;2.10;;;;;;;;;;6853698;28;20053;-84
2021/05/11 11:14:39;;;;;;;2.13;1.63;;;;;;;;;;6854211;28;20038;-86
2021/05/11 11:18:01;;;;;;;4.85;2.00;;;;;;;;;;6873044;28;20039;-83
2021/05/11 11:24:51;;;;;;;6.18;1.92;;;;;;;;;;6866592;28;20027;-81
2021/05/11 11:28:26;;;;;;;4.13;2.42;;;;;;;;;;6866067;28;20035;-82
2021/05/11 11:31:48;;;;;;;2.30;1.83;;;;;;;;;;6880697;28;20039;-81
2021/05/11 11:35:10;;;;;;;4.18;2.05;;;;;;;;;;6867092;28;20429;-83
2021/05/11 11:38:31;;;;;;;2.67;1.52;;;;;;;;;;6873201;28;20034;-81
2021/05/11 11:41:54;;;;;;;3.28;1.90;;;;;;;;;;6879629;28;20026;-81
2021/05/11 11:45:20;;;;;;;8.38;2.20;;;;;;;;;;6864512;28;20469;-81
2021/05/11 11:48:41;;;;;;;2.70;1.73;;;;;;;;;;6861082;28;20085;-81
2021/05/11 11:52:17;;;;;;;7.28;2.40;;;;;;;;;;6860371;28;20042;-80
2021/05/11 11:59:14;;;;;;;2.60;1.63;;;;;;;;;;6869735;28;20038;-80
2021/05/11 12:02:37;;;;;;;3.88;1.95;;;;;;;;;;6867586;28;20453;-80
2021/05/11 12:05:59;;;;;;;3.25;2.00;;;;;;;;;;6862794;28;20061;-80
2021/05/11 12:09:21;;;;;;;6.13;2.00;;;;;;;;;;6867705;28;20372;-80
2021/05/11 12:12:41;;;;;;;3.50;1.90;;;;;;;;;;6864073;28;20035;-81
2021/05/11 12:16:21;;;;;;;2.20;1.63;;;;;;;;;;6868893;28;20026;-80
2021/05/11 12:19:44;;;;;;;2.92;1.90;;;;;;;;;;6859739;28;20038;-81
2021/05/11 12:23:16;;;;;;;3.40;2.00;;;;;;;;;;6862520;28;20501;-80
2021/05/11 12:26:37;;;;;;;3.88;1.92;;;;;;;;;;6871510;28;20058;-79
2021/05/11 12:29:58;;;;;;;3.08;1.75;;;;;;;;;;6859985;23;20062;-80
2021/05/11 12:33:18;;;;;;;10.50;2.08;;;;;;;;;;6805770;29;20039;-80
2021/05/11 12:36:50;;;;;;;7.00;1.80;;;;;;;;;;6808477;29;20035;-81
2021/05/11 12:40:24;;;;;;;3.45;1.77;;;;;;;;;;6802076;29;20042;-81
2021/05/11 12:43:50;;;;;;;3.92;2.08;;;;;;;;;;6808817;29;20369;-81
2021/05/11 12:47:14;;;;;;;7.38;2.10;;;;;;;;;;6810742;29;20355;-81
2021/05/11 12:50:39;;;;;;;3.92;1.90;;;;;;;;;;6799754;29;20041;-82
2021/05/11 12:54:04;;;;;;;10.13;2.20;;;;;;;;;;6809524;29;20362;-80
2021/05/11 12:57:43;;;;;;;4.43;1.77;;;;;;;;;;6808803;29;20063;-80
2021/05/11 13:01:34;;;;;;;2.90;1.70;;;;;;;;;;6809107;29;20038;-80
2021/05/11 13:05:07;;;;;;;9.30;2.13;;;;;;;;;;6806681;29;20094;-82
2021/05/11 13:16:10;;;;;;;7.85;2.15;;;;;;;;;;6814198;29;20456;-80
2021/05/11 13:26:29;;;;;;;6.03;2.20;;;;;;;;;;6817640;29;20032;-80
2021/05/11 13:33:34;;;;;;;7.00;1.63;;;;;;;;;;6835997;28;20043;-81
2021/05/11 13:36:54;;;;;;;6.18;2.00;;;;;;;;;;6836854;28;20074;-80
2021/05/11 13:40:15;;;;;;;5.00;1.90;;;;;;;;;;6834953;29;20031;-81
2021/05/11 13:43:35;;;;;;;4.78;1.90;;;;;;;;;;6828709;28;20114;-83
2021/05/11 13:46:59;;;;;;;6.38;3.53;;;;;;;;;;6827559;28;20038;-85
2021/05/11 13:50:19;;;;;;;8.52;2.80;;;;;;;;;;6821813;28;20032;-84
2021/05/11 13:53:42;;;;;;;8.82;2.47;;;;;;;;;;6817426;28;20050;-88
2021/05/11 14:04:09;;;;;;;4.97;1.80;;;;;;;;;;6849461;28;20129;-85
2021/05/11 14:07:31;;;;;;;7.63;2.15;;;;;;;;;;6815711;28;20066;-84
2021/05/11 14:10:52;;;;;;;4.22;2.10;;;;;;;;;;6845612;28;20034;-85
2021/05/11 14:14:13;;;;;;;7.05;2.08;;;;;;;;;;6845026;28;20018;-83
2021/05/11 14:17:33;;;;;;;6.18;2.08;;;;;;;;;;6840984;28;20039;-85
2021/05/11 14:20:54;;;;;;;7.68;1.75;;;;;;;;;;6843806;28;20046;-86
2021/05/11 14:24:15;;;;;;;4.60;1.60;;;;;;;;;;6842243;28;20462;-84
2021/05/11 14:27:35;;;;;;;6.78;2.10;;;;;;;;;;6841241;28;20501;-85
2021/05/11 14:30:56;;;;;;;4.57;1.80;;;;;;;;;;6842188;28;20039;-83
2021/05/11 14:34:17;;;;;;;11.25;2.10;;;;;;;;;;6842567;28;20039;-82
2021/05/11 14:37:38;;;;;;;7.07;1.90;;;;;;;;;;6834888;28;20388;-84
2021/05/11 14:41:02;;;;;;;3.75;2.30;;;;;;;;;;6841036;28;20038;-83
2021/05/11 14:44:25;;;;;;;3.72;1.80;;;;;;;;;;6834996;29;20028;-85
2021/05/11 14:47:46;;;;;;;9.50;2.35;;;;;;;;;;6841775;28;20039;-84
2021/05/11 14:51:07;;;;;;;6.60;2.25;;;;;;;;;;6830081;29;20350;-85
2021/05/11 14:54:28;;;;;;;3.75;1.75;;;;;;;;;;6835772;29;20547;-84
2021/05/11 14:57:48;;;;;;;8.88;1.83;;;;;;;;;;6836742;29;20035;-85
2021/05/11 15:01:10;;;;;;;5.20;2.30;;;;;;;;;;6840395;28;20134;-84
2021/05/11 15:04:31;;;;;;;7.68;1.67;;;;;;;;;;6840327;28;20131;-84
2021/05/11 15:07:53;;;;;;;2.83;1.60;;;;;;;;;;6841742;28;20085;-82
2021/05/11 15:11:14;;;;;;;3.53;1.95;;;;;;;;;;6836841;28;20481;-82
2021/05/11 15:14:35;;;;;;;4.78;1.85;;;;;;;;;;6840005;28;20079;-84
2021/05/11 15:18:03;;;;;;;3.70;1.95;;;;;;;;;;6846167;28;20089;-88
2021/05/11 15:21:23;;;;;;;4.22;1.90;;;;;;;;;;6837041;28;20102;-83
2021/05/11 15:24:44;;;;;;;4.60;1.90;;;;;;;;;;6836477;28;20461;-87
2021/05/11 15:28:04;;;;;;;2.15;1.45;;;;;;;;;;6845497;28;20069;-84
2021/05/11 15:31:25;;;;;;;5.53;1.85;;;;;;;;;;6834080;28;20043;-82
2021/05/11 15:34:45;;;;;;;2.88;1.52;;;;;;;;;;6837912;28;20038;-83
2021/05/11 15:38:06;;;;;;;5.35;1.63;;;;;;;;;;6840069;28;20090;-83
2021/05/11 15:41:27;;;;;;;4.30;1.80;;;;;;;;;;6845949;28;20095;-84
2021/05/11 15:44:47;;;;;;;1.98;1.52;;;;;;;;;;6842755;28;20054;-84
2021/05/11 15:48:08;;;;;;;2.35;1.60;;;;;;;;;;6842793;28;20054;-85
2021/05/11 15:51:29;;;;;;;3.75;1.92;;;;;;;;;;6838455;28;20054;-84
2021/05/11 15:54:50;;;;;;;2.72;1.80;;;;;;;;;;6836076;28;20032;-84
2021/05/11 15:58:12;;;;;;;3.42;1.70;;;;;;;;;;6836526;28;20031;-84
2021/05/11 16:01:32;;;;;;;4.47;2.00;;;;;;;;;;6830415;28;20054;-84
2021/05/11 16:04:52;;;;;;;4.13;1.95;;;;;;;;;;6838445;28;20089;-83
2021/05/11 16:08:16;;;;;;;6.05;2.00;;;;;;;;;;6824265;29;20472;-83
2021/05/11 16:11:37;;;;;;;9.93;1.73;;;;;;;;;;6833660;28;20114;-82
2021/05/11 16:15:00;;;;;;;6.60;2.00;;;;;;;;;;6830988;28;20040;-84
2021/05/11 16:18:20;;;;;;;7.65;2.63;;;;;;;;;;6822597;29;20042;-87
2021/05/11 16:21:41;;;;;;;10.75;2.85;;;;;;;;;;6821264;29;20027;-84
2021/05/11 16:25:03;;;;;;;5.40;2.70;;;;;;;;;;6816089;29;20028;-85
2021/05/11 16:28:23;;;;;;;4.78;2.30;;;;;;;;;;6827856;29;20520;-89
2021/05/11 16:31:47;;;;;;;26.42;2.67;;;;;;;;;;6833148;29;20074;-89
2021/05/11 16:35:09;;;;;;;6.30;2.58;;;;;;;;;;6837018;28;20098;-89
2021/05/11 16:38:29;;;;;;;7.65;2.90;;;;;;;;;;6834960;29;20038;-88
2021/05/11 16:41:49;;;;;;;6.43;2.90;;;;;;;;;;6820525;29;20027;-89
2021/05/11 16:45:12;;;;;;;7.32;3.05;;;;;;;;;;6807280;29;20040;-92
2021/05/11 16:48:33;;;;;;;4.97;2.88;;;;;;;;;;6838322;28;20031;-89
2021/05/11 16:51:54;;;;;;;7.88;3.92;;;;;;;;;;6810199;28;20027;-89
2021/05/11 16:55:15;;;;;;;6.00;3.20;;;;;;;;;;6805582;29;20030;-88
2021/05/11 16:58:36;;;;;;;5.85;3.45;;;;;;;;;;6843094;28;20037;-89
2021/05/11 17:01:57;;;;;;;13.63;3.20;;;;;;;;;;6837835;28;20039;-92
2021/05/11 17:05:21;;;;;;;7.95;2.47;;;;;;;;;;6832567;29;20074;-92
2021/05/11 17:08:42;;;;;;;7.78;2.60;;;;;;;;;;6848502;28;20031;-91
2021/05/11 17:12:02;;;;;;;10.23;2.33;;;;;;;;;;6835687;28;20046;-92
2021/05/11 17:15:23;;;;;;;9.43;2.55;;;;;;;;;;6836625;28;20031;-92
2021/05/11 17:18:44;;;;;;;9.65;2.25;;;;;;;;;;6851304;28;20026;-89
2021/05/11 17:22:04;;;;;;;5.97;2.25;;;;;;;;;;6824030;28;20027;-91
2021/05/11 17:25:25;;;;;;;10.52;2.58;;;;;;;;;;6832204;29;20058;-92
2021/05/11 17:28:45;;;;;;;3.83;2.63;;;;;;;;;;6838086;28;20401;-90
2021/05/11 17:32:11;;;;;;;3.50;2.20;;;;;;;;;;6852724;28;20031;-91
2021/05/11 17:35:31;;;;;;;5.00;2.38;;;;;;;;;;6823651;28;20031;-92
2021/05/11 17:38:52;;;;;;;3.03;1.92;;;;;;;;;;6845223;28;20376;-92
2021/05/11 17:42:12;;;;;;;5.10;2.40;;;;;;;;;;6812523;28;20027;-92
2021/05/11 17:45:33;;;;;;;4.65;2.15;;;;;;;;;;6832525;28;20028;-89
2021/05/11 17:48:54;;;;;;;5.45;2.47;;;;;;;;;;6853966;28;20106;-92
2021/05/11 17:52:15;;;;;;;6.25;2.20;;;;;;;;;;6839230;28;20039;-89
2021/05/11 17:55:35;;;;;;;5.68;2.33;;;;;;;;;;6824128;28;20439;-93
2021/05/11 17:58:56;;;;;;;7.55;2.63;;;;;;;;;;6852303;28;20035;-92
2021/05/11 18:02:16;;;;;;;5.88;2.05;;;;;;;;;;6857015;28;20368;-91
2021/05/11 18:05:37;;;;;;;5.00;2.10;;;;;;;;;;6845381;28;20039;-91
2021/05/11 18:08:58;;;;;;;3.67;2.20;;;;;;;;;;6828351;28;20054;-92
2021/05/11 18:12:18;;;;;;;4.18;2.20;;;;;;;;;;6828591;28;20392;-90
2021/05/11 18:15:39;;;;;;;4.50;2.00;;;;;;;;;;6851358;28;20573;-89
2021/05/11 18:19:02;;;;;;;3.17;2.20;;;;;;;;;;6846334;28;20477;-90
2021/05/11 18:22:22;;;;;;;3.45;1.90;;;;;;;;;;6851703;28;20381;-88
2021/05/11 18:25:43;;;;;;;3.92;2.35;;;;;;;;;;6840605;28;20505;-88
2021/05/11 18:29:04;;;;;;;3.08;1.77;;;;;;;;;;6848061;28;20106;-88
2021/05/11 18:32:25;;;;;;;4.00;1.73;;;;;;;;;;6846577;28;20035;-89
2021/05/11 18:35:47;;;;;;;9.43;2.20;;;;;;;;;;6840340;28;20147;-89
2021/05/11 18:39:14;;;;;;;6.25;1.88;;;;;;;;;;6827532;28;20118;-88
2021/05/11 18:42:35;;;;;;;4.55;2.47;;;;;;;;;;6825941;28;20117;-88
2021/05/11 18:45:55;;;;;;;7.60;2.33;;;;;;;;;;6840001;28;20042;-88
2021/05/11 18:49:16;;;;;;;4.63;1.83;;;;;;;;;;6839778;28;20070;-88
2021/05/11 18:52:36;;;;;;;8.35;2.30;;;;;;;;;;6839965;28;20028;-88
2021/05/11 18:55:57;;;;;;;5.22;1.85;;;;;;;;;;6839503;28;20457;-88
2021/05/11 18:59:19;;;;;;;4.50;1.73;;;;;;;;;;6844274;28;20054;-88
2021/05/11 19:02:39;;;;;;;5.85;2.28;;;;;;;;;;6845960;28;20090;-89
2021/05/11 19:05:59;;;;;;;4.57;2.03;;;;;;;;;;6847683;28;20035;-88
2021/05/11 19:09:20;;;;;;;6.07;1.85;;;;;;;;;;6841140;28;20118;-88
2021/05/11 19:12:42;;;;;;;3.58;1.83;;;;;;;;;;6830834;28;20059;-88
2021/05/11 19:16:07;;;;;;;4.47;1.95;;;;;;;;;;6843904;28;20441;-90
2021/05/11 19:19:28;;;;;;;3.70;2.10;;;;;;;;;;6856671;28;20042;-85
2021/05/11 19:22:49;;;;;;;7.30;2.40;;;;;;;;;;6843182;28;20042;-84
2021/05/11 19:26:15;;;;;;;3.13;1.70;;;;;;;;;;6839208;28;20400;-88
2021/05/11 19:29:36;;;;;;;5.93;2.03;;;;;;;;;;6836742;29;20039;-86
2021/05/11 19:32:58;;;;;;;4.00;2.08;;;;;;;;;;6840747;28;20031;-88
2021/05/11 19:36:21;;;;;;;3.60;1.73;;;;;;;;;;6829571;28;20050;-89
2021/05/11 19:39:41;;;;;;;6.45;2.30;;;;;;;;;;6804710;29;20085;-87
2021/05/11 19:43:02;;;;;;;6.47;2.10;;;;;;;;;;6838455;28;20350;-87
2021/05/11 19:46:25;;;;;;;6.97;2.17;;;;;;;;;;6839059;28;20039;-86
2021/05/11 19:49:45;;;;;;;12.13;2.33;;;;;;;;;;6846960;28;20058;-88
2021/05/11 19:53:06;;;;;;;8.35;2.58;;;;;;;;;;6822809;28;20042;-85
2021/05/11 19:56:27;;;;;;;5.07;2.35;;;;;;;;;;6843466;28;20058;-87
2021/05/11 19:59:48;;;;;;;7.15;2.38;;;;;;;;;;6837572;28;20081;-87
2021/05/11 20:03:08;;;;;;;5.53;2.17;;;;;;;;;;6833507;28;20050;-87
2021/05/11 20:06:29;;;;;;;5.63;2.03;;;;;;;;;;6829342;28;20094;-83
2021/05/11 20:09:49;;;;;;;3.47;1.90;;;;;;;;;;6846581;28;20044;-89
2021/05/11 20:13:09;;;;;;;4.57;2.13;;;;;;;;;;6836826;28;20058;-86
2021/05/11 20:16:30;;;;;;;4.85;2.10;;;;;;;;;;6847380;28;20033;-85
2021/05/11 20:19:50;;;;;;;4.75;1.70;;;;;;;;;;6822472;29;20155;-83
2021/05/11 20:23:11;;;;;;;29.58;2.70;;;;;;;;;;6838168;28;20491;-84
2021/05/11 20:26:33;;;;;;;13.13;2.08;;;;;;;;;;6841608;28;20027;-85
2021/05/11 20:29:53;;;;;;;8.30;2.33;;;;;;;;;;6835190;28;20051;-85
2021/05/11 20:33:19;;;;;;;12.13;2.45;;;;;;;;;;6850020;28;20105;-85
2021/05/11 20:36:41;;;;;;;4.47;2.20;;;;;;;;;;6836286;28;20114;-85
2021/05/11 20:40:01;;;;;;;5.88;2.05;;;;;;;;;;6825698;29;20044;-87
2021/05/11 20:43:21;;;;;;;10.38;2.08;;;;;;;;;;6826197;28;20061;-84
2021/05/11 20:46:45;;;;;;;6.00;2.33;;;;;;;;;;6829059;28;20042;-86
2021/05/11 20:50:07;;;;;;;3.75;2.00;;;;;;;;;;6835328;28;20158;-84
2021/05/11 20:53:28;;;;;;;7.40;2.10;;;;;;;;;;6830469;28;20126;-88
2021/05/11 20:56:52;;;;;;;6.93;1.83;;;;;;;;;;6832923;28;20373;-86
2021/05/11 21:00:13;;;;;;;5.53;1.80;;;;;;;;;;6809081;28;20614;-92
